Time;durP1;ratioP1;P1;durP2;ratioP2;P2;SDS_P1;SDS_P2;PMS_P1;PMS_P2;Temp;Humidity;BMP_temperature;BMP_pressure;BME280_temperature;BME280_humidity;BME280_pressure;Samples;Min_cycle;Max_cycle;Signal;HPM_P1;HPM_P2
2022/10/07 00:00:36;;;;;;;14.07;12.57;;;25.50;93.60;;;;;;5123449;28;20506;-66
2022/10/07 00:03:07;;;;;;;14.20;12.00;;;25.40;93.50;;;;;;5122978;28;20549;-66
2022/10/07 00:05:38;;;;;;;14.27;12.87;;;25.30;93.80;;;;;;5123638;28;20509;-67
2022/10/07 00:08:08;;;;;;;15.50;13.90;;;25.30;94.00;;;;;;5123261;28;20466;-66
2022/10/07 00:10:40;;;;;;;14.03;12.63;;;25.30;94.60;;;;;;5123090;28;20476;-66
2022/10/07 00:13:12;;;;;;;17.50;14.70;;;25.30;94.40;;;;;;5122599;28;20444;-66
2022/10/07 00:15:44;;;;;;;16.70;13.23;;;25.30;95.10;;;;;;5123203;28;20783;-65
2022/10/07 00:18:16;;;;;;;16.47;13.97;;;25.10;95.20;;;;;;5122535;28;20467;-65
2022/10/07 00:20:47;;;;;;;16.67;14.73;;;25.10;95.50;;;;;;5123487;28;20885;-66
2022/10/07 00:23:20;;;;;;;15.83;13.50;;;25.10;94.90;;;;;;5122473;28;20506;-66
2022/10/07 00:25:51;;;;;;;14.63;12.80;;;25.00;95.60;;;;;;5130598;27;20485;-67
2022/10/07 00:28:24;;;;;;;14.67;13.00;;;25.00;95.80;;;;;;5138886;27;20443;-67
2022/10/07 00:31:00;;;;;;;16.43;13.97;;;24.90;95.80;;;;;;5143205;27;20454;-67
2022/10/07 00:33:33;;;;;;;16.43;14.70;;;24.80;95.40;;;;;;5143615;27;20526;-68
2022/10/07 00:36:08;;;;;;;15.90;14.20;;;24.80;96.00;;;;;;5142622;27;20496;-68
2022/10/07 00:38:39;;;;;;;15.33;13.20;;;24.70;96.30;;;;;;5119612;27;20476;-68
2022/10/07 00:41:16;;;;;;;14.50;12.90;;;24.60;96.60;;;;;;5126032;28;20513;-67
2022/10/07 00:43:48;;;;;;;17.60;13.93;;;24.60;96.60;;;;;;5142962;27;20549;-67
2022/10/07 00:46:28;;;;;;;14.13;12.60;;;24.50;96.90;;;;;;5123090;27;20816;-67
2022/10/07 00:49:01;;;;;;;16.07;13.80;;;24.40;97.60;;;;;;5122280;27;20537;-67
2022/10/07 00:51:34;;;;;;;15.80;13.30;;;24.40;97.40;;;;;;5146568;27;20447;-67
2022/10/07 00:54:09;;;;;;;15.00;13.50;;;24.20;98.20;;;;;;5147457;27;20472;-67
2022/10/07 00:56:41;;;;;;;15.53;13.90;;;24.20;98.70;;;;;;5115970;27;20454;-65
2022/10/07 00:59:12;;;;;;;17.70;14.63;;;24.00;98.90;;;;;;5133256;27;20471;-65
2022/10/07 01:01:45;;;;;;;14.70;13.10;;;23.90;99.50;;;;;;5143821;27;20446;-64
2022/10/07 01:04:18;;;;;;;16.33;14.53;;;23.80;99.70;;;;;;5124015;27;20478;-67
2022/10/07 01:06:49;;;;;;;16.80;14.07;;;23.70;99.90;;;;;;5107563;27;20926;-64
2022/10/07 01:09:20;;;;;;;19.10;15.10;;;23.60;99.90;;;;;;5135231;27;20450;-64
2022/10/07 01:12:00;;;;;;;17.93;16.13;;;23.50;99.90;;;;;;5134632;27;20865;-65
2022/10/07 01:14:44;;;;;;;26.00;23.33;;;23.30;99.90;;;;;;5147249;27;20470;-65
2022/10/07 01:17:26;;;;;;;22.63;20.33;;;23.20;99.90;;;;;;5146841;27;20452;-66
2022/10/07 01:20:25;;;;;;;20.33;17.70;;;23.10;99.90;;;;;;5135565;27;20465;-66
2022/10/07 01:23:21;;;;;;;18.37;16.37;;;22.90;99.90;;;;;;5137033;27;20484;-64
2022/10/07 01:26:06;;;;;;;23.07;17.60;;;22.80;99.90;;;;;;5126315;27;20527;-66
2022/10/07 01:28:42;;;;;;;16.77;14.67;;;22.70;99.90;;;;;;5146666;27;20500;-65
2022/10/07 01:31:18;;;;;;;19.43;17.30;;;22.60;99.90;;;;;;5124633;27;20590;-66
2022/10/07 01:33:50;;;;;;;17.90;15.43;;;22.50;99.90;;;;;;5125104;27;20530;-67
2022/10/07 01:36:24;;;;;;;19.00;15.87;;;22.40;99.90;;;;;;5125429;27;20935;-64
2022/10/07 01:39:06;;;;;;;21.87;16.87;;;22.20;99.90;;;;;;5113499;27;20458;-64
2022/10/07 01:41:39;;;;;;;19.47;16.10;;;22.10;99.90;;;;;;5122767;27;20449;-64
2022/10/07 01:44:14;;;;;;;20.17;16.00;;;21.90;99.90;;;;;;5119477;27;20817;-65
2022/10/07 01:46:46;;;;;;;17.77;15.93;;;21.80;99.90;;;;;;5145736;27;20444;-65
2022/10/07 01:49:17;;;;;;;18.57;15.73;;;21.70;99.90;;;;;;5143771;27;20453;-65
2022/10/07 01:51:55;;;;;;;18.70;16.10;;;21.50;99.90;;;;;;5146119;27;20437;-64
2022/10/07 01:54:37;;;;;;;21.10;18.13;;;21.40;99.90;;;;;;5113605;27;20516;-65
2022/10/07 01:57:19;;;;;;;20.70;17.70;;;21.30;99.90;;;;;;5145191;27;20452;-64
2022/10/07 02:00:04;;;;;;;25.60;21.37;;;21.10;99.90;;;;;;5145487;27;20453;-64
2022/10/07 02:02:56;;;;;;;25.60;22.80;;;21.10;99.90;;;;;;5115535;27;20441;-65
2022/10/07 02:05:38;;;;;;;25.63;22.93;;;21.00;99.90;;;;;;5146027;27;20536;-65
2022/10/07 02:08:29;;;;;;;28.40;22.93;;;20.90;99.90;;;;;;5145622;27;20470;-64
2022/10/07 02:11:12;;;;;;;27.53;24.60;;;20.80;99.90;;;;;;5145384;27;20482;-65
2022/10/07 02:13:54;;;;;;;29.93;24.53;;;20.60;99.90;;;;;;5145501;27;20462;-65
2022/10/07 02:16:31;;;;;;;24.87;22.37;;;20.50;99.90;;;;;;5145569;27;20491;-65
2022/10/07 02:19:07;;;;;;;26.70;23.80;;;20.40;99.90;;;;;;5125455;27;20495;-64
2022/10/07 02:21:40;;;;;;;25.20;22.37;;;20.30;99.90;;;;;;5142865;27;20448;-63
2022/10/07 02:24:13;;;;;;;24.83;21.77;;;20.20;99.90;;;;;;5120707;27;20989;-64
2022/10/07 02:26:46;;;;;;;24.67;22.07;;;20.10;99.90;;;;;;5134850;27;20424;-64
2022/10/07 02:29:19;;;;;;;23.80;21.17;;;20.10;99.90;;;;;;5126982;27;20449;-64
2022/10/07 02:31:53;;;;;;;24.70;20.87;;;20.00;99.90;;;;;;5133477;27;20452;-64
2022/10/07 02:34:27;;;;;;;24.23;21.50;;;19.90;99.90;;;;;;5145935;27;20452;-65
2022/10/07 02:37:02;;;;;;;26.13;20.30;;;19.90;99.90;;;;;;5145084;27;20509;-65
2022/10/07 02:39:33;;;;;;;25.90;19.97;;;19.80;99.90;;;;;;5145063;27;20497;-64
2022/10/07 02:42:17;;;;;;;22.90;19.70;;;19.70;99.90;;;;;;5136519;27;20510;-66
2022/10/07 02:44:52;;;;;;;22.30;19.63;;;19.60;99.90;;;;;;5141510;27;20489;-65
2022/10/07 02:47:30;;;;;;;23.43;20.80;;;19.50;99.90;;;;;;5145214;27;20419;-66
2022/10/07 02:50:04;;;;;;;25.00;21.53;;;19.50;99.90;;;;;;5144690;27;20419;-65
2022/10/07 02:52:36;;;;;;;25.00;19.80;;;19.50;99.90;;;;;;5142493;27;20416;-65
2022/10/07 02:55:10;;;;;;;24.87;21.80;;;19.30;99.90;;;;;;5138218;27;20420;-66
2022/10/07 02:57:44;;;;;;;27.23;21.60;;;19.30;99.90;;;;;;5127244;27;20920;-65
2022/10/07 03:00:17;;;;;;;25.70;20.73;;;19.20;99.90;;;;;;5143408;27;20444;-66
2022/10/07 03:02:52;;;;;;;27.40;22.97;;;19.20;99.90;;;;;;5142257;27;20895;-65
2022/10/07 03:05:24;;;;;;;27.60;20.17;;;19.10;99.90;;;;;;5138552;27;20514;-66
2022/10/07 03:07:58;;;;;;;23.00;18.97;;;19.10;99.90;;;;;;5130212;27;20442;-66
2022/10/07 03:10:29;;;;;;;21.17;18.87;;;19.20;99.90;;;;;;5113081;27;20808;-65
2022/10/07 03:13:00;;;;;;;18.87;15.87;;;19.10;99.90;;;;;;5143655;27;20500;-66
2022/10/07 03:15:31;;;;;;;18.00;15.30;;;19.10;99.90;;;;;;5142894;27;20447;-66
2022/10/07 03:18:24;;;;;;;20.10;15.47;;;19.10;99.90;;;;;;5142882;27;20419;-66
2022/10/07 03:20:56;;;;;;;19.40;14.67;;;19.10;99.90;;;;;;5138588;27;20447;-66
2022/10/07 03:23:28;;;;;;;18.57;15.13;;;19.00;99.90;;;;;;5124412;27;20471;-66
2022/10/07 03:26:00;;;;;;;19.43;15.50;;;19.10;99.90;;;;;;5124004;27;20416;-66
2022/10/07 03:28:36;;;;;;;17.13;13.87;;;19.00;99.90;;;;;;5140814;27;20445;-66
2022/10/07 03:31:08;;;;;;;19.23;13.93;;;18.90;99.90;;;;;;5135148;27;20448;-66
2022/10/07 03:33:41;;;;;;;18.80;14.70;;;18.90;99.90;;;;;;5141632;27;20519;-67
2022/10/07 03:36:12;;;;;;;18.70;13.90;;;18.80;99.90;;;;;;5143706;27;20452;-67
2022/10/07 03:38:43;;;;;;;19.23;15.50;;;18.60;99.90;;;;;;5144376;27;20437;-66
2022/10/07 03:41:14;;;;;;;18.40;15.67;;;18.60;99.90;;;;;;5141628;27;20456;-66
2022/10/07 03:43:45;;;;;;;22.40;14.77;;;18.60;99.90;;;;;;5141173;27;20441;-67
2022/10/07 03:46:16;;;;;;;18.40;13.63;;;18.60;99.90;;;;;;5143722;27;20462;-67
2022/10/07 03:48:48;;;;;;;15.73;13.30;;;18.50;99.90;;;;;;5144245;27;20474;-67
2022/10/07 03:51:19;;;;;;;18.37;12.43;;;18.60;99.90;;;;;;5143674;27;20472;-67
2022/10/07 03:53:53;;;;;;;22.30;13.27;;;18.50;99.90;;;;;;5109587;27;20438;-66
2022/10/07 03:56:24;;;;;;;18.70;13.83;;;18.40;99.90;;;;;;5102654;28;20955;-66
2022/10/07 03:58:54;;;;;;;19.07;13.77;;;18.30;99.90;;;;;;5108693;27;20441;-66
2022/10/07 04:01:26;;;;;;;19.53;13.43;;;18.40;99.90;;;;;;5143270;27;20442;-66
2022/10/07 04:03:59;;;;;;;15.07;12.07;;;18.30;99.90;;;;;;5144226;27;20495;-66
2022/10/07 04:06:30;;;;;;;16.80;13.40;;;18.20;99.90;;;;;;5143664;27;20885;-65
2022/10/07 04:09:02;;;;;;;18.40;13.63;;;18.10;99.90;;;;;;5125843;27;20578;-67
2022/10/07 04:11:33;;;;;;;18.20;13.80;;;18.10;99.90;;;;;;5121775;28;20947;-66
2022/10/07 04:14:04;;;;;;;16.23;11.57;;;18.00;99.90;;;;;;5129584;27;20441;-67
2022/10/07 04:16:35;;;;;;;17.60;13.00;;;18.00;99.90;;;;;;5143221;27;20519;-67
2022/10/07 04:19:08;;;;;;;17.27;12.50;;;17.90;99.90;;;;;;5143290;27;20505;-67
2022/10/07 04:21:40;;;;;;;17.33;12.83;;;17.90;99.90;;;;;;5129748;27;20445;-66
2022/10/07 04:24:11;;;;;;;18.47;13.13;;;17.80;99.90;;;;;;5143321;27;20526;-66
2022/10/07 04:26:42;;;;;;;15.27;11.83;;;17.80;99.90;;;;;;5139827;27;20895;-67
2022/10/07 04:29:14;;;;;;;17.67;12.07;;;17.70;99.90;;;;;;5142241;27;20444;-66
2022/10/07 04:31:45;;;;;;;17.40;13.57;;;17.70;99.90;;;;;;5142603;27;20485;-67
2022/10/07 04:34:17;;;;;;;17.30;13.50;;;17.60;99.90;;;;;;5143474;27;20754;-67
2022/10/07 04:36:48;;;;;;;16.97;12.07;;;17.60;99.90;;;;;;5142357;27;20968;-66
2022/10/07 04:39:19;;;;;;;17.90;12.73;;;17.60;99.90;;;;;;5142822;27;20423;-66
2022/10/07 04:41:50;;;;;;;14.70;11.23;;;17.60;99.90;;;;;;5141790;27;20540;-66
2022/10/07 04:44:21;;;;;;;18.13;11.97;;;17.50;99.90;;;;;;5142260;28;20512;-66
2022/10/07 04:46:55;;;;;;;18.10;12.40;;;17.40;99.90;;;;;;5142791;27;20437;-66
2022/10/07 04:49:27;;;;;;;18.10;12.90;;;17.40;99.90;;;;;;5143005;27;20411;-65
2022/10/07 04:51:58;;;;;;;18.97;13.13;;;17.30;99.90;;;;;;5131420;28;20445;-66
2022/10/07 04:54:29;;;;;;;15.93;11.40;;;17.30;99.90;;;;;;5140946;27;20941;-65
2022/10/07 04:57:00;;;;;;;14.80;11.67;;;17.30;99.90;;;;;;5121409;28;20989;-66
2022/10/07 04:59:30;;;;;;;16.30;12.87;;;17.30;99.90;;;;;;5122081;28;20490;-65
2022/10/07 05:02:03;;;;;;;15.17;11.90;;;17.20;99.90;;;;;;5136545;28;20433;-65
2022/10/07 05:04:35;;;;;;;14.13;10.87;;;17.10;99.90;;;;;;5133565;27;20463;-66
2022/10/07 05:07:07;;;;;;;14.23;10.97;;;17.10;99.90;;;;;;5120172;28;20534;-65
2022/10/07 05:09:38;;;;;;;17.43;12.77;;;17.00;99.90;;;;;;5139335;28;20571;-66
2022/10/07 05:12:08;;;;;;;14.27;11.17;;;16.90;99.90;;;;;;5136618;27;20457;-65
2022/10/07 05:14:42;;;;;;;14.27;11.57;;;16.90;99.90;;;;;;5141788;27;20426;-66
2022/10/07 05:17:13;;;;;;;15.90;11.90;;;16.90;99.90;;;;;;5142730;27;20471;-65
2022/10/07 05:19:45;;;;;;;17.03;11.90;;;16.80;99.90;;;;;;5142312;27;20445;-65
2022/10/07 05:22:16;;;;;;;18.40;13.67;;;16.80;99.90;;;;;;5141945;27;20452;-65
2022/10/07 05:24:47;;;;;;;14.73;10.60;;;16.70;99.90;;;;;;5141531;27;20480;-65
2022/10/07 05:27:18;;;;;;;14.93;12.07;;;16.70;99.90;;;;;;5141430;27;20453;-65
2022/10/07 05:29:49;;;;;;;17.57;12.43;;;16.60;99.90;;;;;;5142311;28;20468;-65
2022/10/07 05:32:20;;;;;;;16.40;11.40;;;16.60;99.90;;;;;;5142373;27;20460;-65
2022/10/07 05:34:52;;;;;;;16.13;12.73;;;16.50;99.90;;;;;;5145941;27;20445;-65
2022/10/07 05:37:23;;;;;;;16.80;12.10;;;16.50;99.90;;;;;;5145599;27;20509;-65
2022/10/07 05:39:54;;;;;;;15.13;11.53;;;16.50;99.90;;;;;;5146066;27;20471;-65
2022/10/07 05:42:25;;;;;;;17.50;11.60;;;16.60;99.90;;;;;;5144700;27;20481;-65
2022/10/07 05:44:55;;;;;;;16.80;12.07;;;16.60;99.90;;;;;;5145629;27;20423;-65
2022/10/07 05:47:26;;;;;;;17.43;12.40;;;16.60;99.90;;;;;;5146001;27;20453;-65
2022/10/07 05:49:59;;;;;;;15.47;10.70;;;16.60;99.90;;;;;;5145502;27;20423;-65
2022/10/07 05:52:30;;;;;;;20.03;11.23;;;16.50;99.90;;;;;;5145429;27;20424;-65
2022/10/07 05:55:01;;;;;;;15.23;11.83;;;16.60;99.90;;;;;;5145257;27;20572;-66
2022/10/07 05:57:32;;;;;;;16.23;11.83;;;16.50;99.90;;;;;;5145860;27;20509;-66
2022/10/07 06:00:04;;;;;;;15.87;10.90;;;16.50;99.90;;;;;;5145366;27;20411;-65
2022/10/07 06:02:35;;;;;;;12.63;11.33;;;16.30;99.90;;;;;;5145865;27;20422;-65
2022/10/07 06:05:08;;;;;;;12.23;10.93;;;16.30;99.90;;;;;;5144732;27;20445;-65
2022/10/07 06:07:39;;;;;;;16.90;12.90;;;16.30;99.90;;;;;;5145171;27;20445;-65
2022/10/07 06:13:10;;;;;;;17.30;12.43;;;16.30;99.90;;;;;;5145223;27;20475;-66
2022/10/07 06:15:41;;;;;;;17.47;12.80;;;16.30;99.90;;;;;;5145567;27;20613;-65
2022/10/07 06:18:12;;;;;;;14.73;10.30;;;16.20;99.90;;;;;;5145549;27;20433;-65
2022/10/07 06:20:53;;;;;;;15.90;11.37;;;16.10;99.90;;;;;;5146142;27;20437;-65
2022/10/07 06:23:24;;;;;;;16.20;12.50;;;16.00;99.90;;;;;;5145045;27;20844;-65
2022/10/07 06:25:57;;;;;;;16.83;11.93;;;15.90;99.90;;;;;;5138808;27;20561;-65
2022/10/07 06:28:33;;;;;;;16.10;11.07;;;15.90;99.90;;;;;;5145218;27;20498;-65
2022/10/07 06:31:06;;;;;;;16.60;12.10;;;15.90;99.90;;;;;;5144691;27;20476;-65
2022/10/07 06:33:37;;;;;;;16.27;11.13;;;15.90;99.90;;;;;;5144512;27;20433;-65
2022/10/07 06:36:12;;;;;;;14.77;11.20;;;15.80;99.90;;;;;;5145420;27;20502;-65
2022/10/07 06:38:46;;;;;;;12.50;9.93;;;15.80;99.90;;;;;;5144812;27;20512;-65
2022/10/07 06:41:17;;;;;;;15.63;11.57;;;15.80;99.90;;;;;;5144565;27;20448;-65
2022/10/07 06:43:48;;;;;;;19.27;11.47;;;15.80;99.90;;;;;;5144480;27;20453;-66
2022/10/07 06:46:20;;;;;;;16.00;10.97;;;15.70;99.90;;;;;;5143501;27;20474;-66
2022/10/07 06:48:51;;;;;;;14.37;11.27;;;15.60;99.90;;;;;;5145414;27;20452;-66
2022/10/07 06:51:24;;;;;;;15.87;11.00;;;15.60;99.90;;;;;;5145060;27;20445;-66
2022/10/07 06:53:56;;;;;;;13.87;11.93;;;15.50;99.90;;;;;;5144652;27;20524;-65
2022/10/07 06:56:27;;;;;;;15.20;11.40;;;15.50;99.90;;;;;;5143411;27;20544;-65
2022/10/07 06:58:58;;;;;;;16.33;12.30;;;15.50;99.90;;;;;;5144811;27;20452;-65
2022/10/07 07:01:28;;;;;;;14.87;11.50;;;15.40;99.90;;;;;;5145164;27;20501;-66
2022/10/07 07:04:00;;;;;;;14.73;11.53;;;15.40;99.90;;;;;;5124248;27;20546;-65
2022/10/07 07:06:37;;;;;;;13.80;10.23;;;15.40;99.90;;;;;;5145109;27;20537;-65
2022/10/07 07:09:07;;;;;;;20.33;12.03;;;15.30;99.90;;;;;;5144767;27;20506;-64
2022/10/07 07:11:40;;;;;;;18.33;12.20;;;15.30;99.90;;;;;;5143595;27;20601;-65
2022/10/07 07:14:12;;;;;;;14.80;11.23;;;15.20;99.90;;;;;;5144129;27;20449;-65
2022/10/07 07:16:43;;;;;;;16.60;11.03;;;15.20;99.90;;;;;;5144348;27;20480;-65
2022/10/07 07:19:14;;;;;;;16.00;11.23;;;15.20;99.90;;;;;;5145048;27;20471;-65
2022/10/07 07:21:47;;;;;;;12.77;9.73;;;15.20;99.90;;;;;;5144652;27;20497;-65
2022/10/07 07:24:20;;;;;;;17.03;11.40;;;15.20;99.90;;;;;;5118562;27;20448;-65
2022/10/07 07:26:51;;;;;;;18.07;11.90;;;15.20;99.90;;;;;;5143625;27;20580;-65
2022/10/07 07:29:22;;;;;;;14.70;11.00;;;15.10;99.90;;;;;;5144481;27;20449;-65
2022/10/07 07:31:53;;;;;;;13.87;10.27;;;15.00;99.90;;;;;;5144255;27;20516;-65
2022/10/07 07:34:24;;;;;;;18.00;11.00;;;14.90;99.90;;;;;;5110717;27;20455;-66
2022/10/07 07:36:57;;;;;;;16.97;10.50;;;14.90;99.90;;;;;;5145043;27;20419;-65
2022/10/07 07:39:28;;;;;;;13.40;11.33;;;14.90;99.90;;;;;;5144126;27;20448;-65
2022/10/07 07:41:58;;;;;;;14.60;11.20;;;14.90;99.90;;;;;;5143161;27;20536;-65
2022/10/07 07:44:29;;;;;;;14.40;10.73;;;14.90;99.90;;;;;;5143447;27;20419;-65
2022/10/07 07:47:04;;;;;;;17.80;10.80;;;14.90;99.90;;;;;;5143246;27;20494;-66
2022/10/07 07:49:35;;;;;;;16.10;12.27;;;14.90;99.90;;;;;;5144172;27;20486;-66
2022/10/07 07:52:07;;;;;;;13.80;11.20;;;14.90;99.90;;;;;;5138538;27;20437;-66
2022/10/07 07:54:40;;;;;;;15.30;10.30;;;14.90;99.90;;;;;;5142245;27;20449;-66
2022/10/07 07:57:11;;;;;;;15.10;11.20;;;14.80;99.90;;;;;;5142762;27;20472;-66
2022/10/07 07:59:42;;;;;;;13.40;11.63;;;14.80;99.90;;;;;;5126528;27;20482;-66
2022/10/07 08:02:13;;;;;;;15.53;10.60;;;14.70;99.90;;;;;;5142982;27;20449;-66
2022/10/07 08:04:44;;;;;;;17.37;11.20;;;14.60;99.90;;;;;;5143525;27;20455;-66
2022/10/07 08:07:16;;;;;;;19.73;12.57;;;14.60;99.90;;;;;;5143200;27;20868;-66
2022/10/07 08:09:47;;;;;;;15.10;11.97;;;14.60;99.90;;;;;;5142100;27;20449;-66
2022/10/07 08:12:19;;;;;;;15.90;12.27;;;14.60;99.90;;;;;;5143308;27;20448;-66
2022/10/07 08:14:51;;;;;;;15.40;11.63;;;14.50;99.90;;;;;;5143080;27;20445;-66
2022/10/07 08:17:23;;;;;;;18.77;11.67;;;14.60;99.90;;;;;;5142965;27;20437;-66
2022/10/07 08:19:55;;;;;;;15.40;10.63;;;14.50;99.90;;;;;;5143601;27;20437;-66
2022/10/07 08:22:27;;;;;;;16.03;11.70;;;14.50;99.90;;;;;;5143319;27;20457;-65
2022/10/07 08:24:59;;;;;;;18.37;11.00;;;14.50;99.90;;;;;;5139077;27;20479;-65
2022/10/07 08:27:29;;;;;;;17.40;11.73;;;14.50;99.90;;;;;;5138495;27;20852;-65
2022/10/07 08:30:01;;;;;;;14.40;10.43;;;14.40;99.90;;;;;;5142708;27;20845;-65
2022/10/07 08:32:31;;;;;;;15.93;11.00;;;14.40;99.90;;;;;;5143605;27;20481;-66
2022/10/07 08:35:02;;;;;;;16.10;10.43;;;14.40;99.90;;;;;;5143992;27;20489;-65
2022/10/07 08:37:34;;;;;;;13.47;11.73;;;14.50;99.90;;;;;;5142735;27;20476;-66
2022/10/07 08:40:06;;;;;;;16.90;11.50;;;14.50;99.90;;;;;;5142773;27;20539;-65
2022/10/07 08:42:41;;;;;;;13.60;9.97;;;14.40;99.90;;;;;;5142698;27;20470;-65
2022/10/07 08:45:21;;;;;;;17.30;11.13;;;14.40;99.90;;;;;;5143282;27;20540;-65
2022/10/07 08:47:52;;;;;;;17.33;11.40;;;14.40;99.90;;;;;;5142521;27;20544;-65
2022/10/07 08:50:28;;;;;;;18.43;11.83;;;14.30;99.90;;;;;;5143530;27;20445;-66
2022/10/07 08:53:03;;;;;;;14.63;10.67;;;14.40;99.90;;;;;;5143107;27;20440;-66
2022/10/07 08:55:40;;;;;;;17.93;11.13;;;14.30;99.90;;;;;;5141996;27;20461;-66
2022/10/07 08:58:44;;;;;;;15.10;11.40;;;14.20;99.90;;;;;;5141247;28;20513;-65
2022/10/07 09:01:26;;;;;;;17.80;11.17;;;14.20;99.90;;;;;;5125560;28;20444;-66
2022/10/07 09:04:07;;;;;;;12.70;9.83;;;14.20;99.90;;;;;;5133590;27;20876;-66
2022/10/07 09:06:42;;;;;;;15.97;10.33;;;14.20;99.90;;;;;;5142162;27;20472;-65
2022/10/07 09:09:19;;;;;;;12.37;9.47;;;14.10;99.90;;;;;;5145935;27;20440;-66
2022/10/07 09:11:51;;;;;;;15.57;10.87;;;14.00;99.90;;;;;;5146721;27;20429;-65
2022/10/07 09:14:29;;;;;;;13.80;10.20;;;13.90;99.90;;;;;;5147131;27;20469;-65
2022/10/07 09:17:06;;;;;;;15.03;10.37;;;14.00;99.90;;;;;;5146477;27;20478;-66
2022/10/07 09:19:42;;;;;;;14.00;11.10;;;14.00;99.90;;;;;;5146768;27;20880;-65
2022/10/07 09:22:20;;;;;;;18.10;11.63;;;13.90;99.90;;;;;;5146557;27;20441;-65
2022/10/07 09:25:07;;;;;;;17.30;11.00;;;13.90;99.90;;;;;;5146647;27;20508;-65
2022/10/07 09:27:40;;;;;;;17.67;10.80;;;13.90;99.90;;;;;;5145432;27;20556;-65
2022/10/07 09:30:14;;;;;;;14.47;11.10;;;13.80;99.90;;;;;;5146611;27;20552;-65
2022/10/07 09:32:46;;;;;;;16.40;10.90;;;13.80;99.90;;;;;;5146783;27;20436;-65
2022/10/07 09:35:18;;;;;;;14.50;10.07;;;13.80;99.90;;;;;;5146360;27;20448;-65
2022/10/07 09:38:02;;;;;;;15.37;11.30;;;13.90;99.90;;;;;;5146139;27;20484;-65
2022/10/07 09:41:13;;;;;;;13.73;9.50;;;13.80;99.90;;;;;;5145995;27;20452;-65
2022/10/07 09:43:28;;;;;;;15.30;10.77;;;13.90;99.90;;;;;;5143107;27;20453;-65
2022/10/07 09:46:00;;;;;;;15.00;10.80;;;13.90;99.90;;;;;;5146541;27;20444;-65
2022/10/07 09:48:33;;;;;;;17.33;12.30;;;13.80;99.90;;;;;;5145767;27;20540;-66
2022/10/07 09:51:26;;;;;;;14.57;9.57;;;13.90;99.90;;;;;;5146704;27;20441;-66
2022/10/07 09:54:01;;;;;;;17.50;10.73;;;13.80;99.90;;;;;;5135641;27;20452;-65
2022/10/07 09:56:38;;;;;;;15.37;10.87;;;13.70;99.90;;;;;;5143992;27;20484;-66
2022/10/07 09:59:22;;;;;;;16.13;11.37;;;13.70;99.90;;;;;;5146093;27;20452;-65
2022/10/07 10:01:55;;;;;;;14.90;11.43;;;13.80;99.90;;;;;;5145860;27;20545;-66
2022/10/07 10:04:32;;;;;;;15.33;10.03;;;13.80;99.90;;;;;;5146429;27;20463;-66
2022/10/07 10:07:06;;;;;;;16.77;11.10;;;13.70;99.90;;;;;;5145631;27;20476;-66
2022/10/07 10:09:37;;;;;;;19.67;12.30;;;13.60;99.90;;;;;;5146035;27;20437;-66
2022/10/07 10:12:16;;;;;;;13.87;10.00;;;13.60;99.90;;;;;;5145218;27;20470;-65
2022/10/07 10:14:51;;;;;;;13.20;10.23;;;13.60;99.90;;;;;;5145669;27;20482;-65
2022/10/07 10:17:30;;;;;;;17.80;11.67;;;13.50;99.90;;;;;;5122573;27;20476;-66
2022/10/07 10:20:35;;;;;;;17.27;11.27;;;13.50;99.90;;;;;;5144802;27;20509;-65
2022/10/07 10:23:29;;;;;;;17.07;10.83;;;13.40;99.90;;;;;;5064796;28;20513;-65
2022/10/07 10:26:28;;;;;;;23.70;13.43;;;13.50;99.90;;;;;;5062131;28;20449;-65
2022/10/07 10:29:25;;;;;;;18.43;10.53;;;13.40;99.90;;;;;;5073980;28;20491;-64
2022/10/07 10:32:21;;;;;;;14.70;10.50;;;13.40;99.90;;;;;;5074301;28;20494;-65
2022/10/07 10:35:00;;;;;;;14.87;10.40;;;13.40;99.90;;;;;;5047766;28;20453;-65
2022/10/07 10:37:45;;;;;;;15.20;11.20;;;13.40;99.90;;;;;;5061845;28;20662;-65
2022/10/07 10:40:23;;;;;;;19.03;11.10;;;13.30;99.90;;;;;;5081122;28;20444;-65
2022/10/07 10:43:04;;;;;;;16.27;10.70;;;13.30;99.90;;;;;;5077478;28;20830;-64
2022/10/07 10:45:45;;;;;;;13.67;10.93;;;13.30;99.90;;;;;;5077668;28;20454;-65
2022/10/07 10:48:29;;;;;;;15.47;11.20;;;13.30;99.90;;;;;;5079275;28;21282;-65
2022/10/07 10:51:09;;;;;;;16.27;12.17;;;13.20;99.90;;;;;;5079825;28;20845;-66
2022/10/07 10:53:50;;;;;;;20.17;12.07;;;13.10;99.90;;;;;;5086200;28;20450;-65
2022/10/07 10:56:34;;;;;;;18.60;10.27;;;13.10;99.90;;;;;;5144024;27;20476;-65
2022/10/07 10:59:25;;;;;;;14.53;9.70;;;13.20;99.90;;;;;;5144680;27;20529;-65
2022/10/07 11:02:05;;;;;;;20.60;10.67;;;13.20;99.90;;;;;;5139346;27;20456;-65
2022/10/07 11:04:44;;;;;;;14.53;10.17;;;13.10;99.90;;;;;;5123058;27;20441;-65
2022/10/07 11:07:22;;;;;;;16.33;12.27;;;13.10;99.90;;;;;;5144855;27;20521;-64
2022/10/07 11:09:56;;;;;;;16.23;10.27;;;13.10;99.90;;;;;;5144808;27;20449;-65
2022/10/07 11:12:30;;;;;;;16.90;10.93;;;13.00;99.90;;;;;;5143886;27;20448;-65
2022/10/07 11:15:07;;;;;;;14.17;9.37;;;12.90;99.90;;;;;;5122808;27;20517;-65
2022/10/07 11:17:40;;;;;;;15.53;10.87;;;12.80;99.90;;;;;;5143981;27;20512;-65
2022/10/07 11:20:19;;;;;;;16.57;10.50;;;12.80;99.90;;;;;;5144404;27;20461;-65
2022/10/07 11:22:55;;;;;;;16.43;10.60;;;12.90;99.90;;;;;;5144669;27;20429;-65
2022/10/07 11:25:32;;;;;;;16.97;11.87;;;12.90;99.90;;;;;;5144647;27;20883;-65
2022/10/07 11:28:14;;;;;;;14.40;10.07;;;12.90;99.90;;;;;;5143169;27;20484;-65
2022/10/07 11:30:50;;;;;;;14.83;11.53;;;12.80;99.90;;;;;;5136478;27;20448;-65
2022/10/07 11:33:30;;;;;;;15.33;10.70;;;12.80;99.90;;;;;;5144247;27;20464;-65
2022/10/07 11:36:09;;;;;;;19.93;11.70;;;12.80;99.90;;;;;;5144208;27;20453;-65
2022/10/07 11:38:40;;;;;;;13.67;8.87;;;12.90;99.90;;;;;;5143977;27;20501;-65
2022/10/07 11:41:18;;;;;;;15.83;10.93;;;12.90;99.90;;;;;;5142880;27;20441;-65
2022/10/07 11:43:54;;;;;;;14.07;10.97;;;12.90;99.90;;;;;;5144604;27;20596;-65
2022/10/07 11:46:29;;;;;;;14.67;9.77;;;12.80;99.90;;;;;;5143796;27;20448;-65
2022/10/07 11:49:06;;;;;;;14.33;10.97;;;12.80;99.90;;;;;;5143384;27;20492;-65
2022/10/07 11:51:40;;;;;;;12.97;10.10;;;12.80;99.90;;;;;;5143570;27;20600;-65
2022/10/07 11:54:17;;;;;;;16.23;11.30;;;12.80;99.90;;;;;;5139664;27;20482;-65
2022/10/07 11:56:50;;;;;;;19.30;10.77;;;12.70;99.90;;;;;;5142414;27;20513;-65
2022/10/07 11:59:32;;;;;;;14.33;10.50;;;12.70;99.90;;;;;;5143521;27;20971;-65
2022/10/07 12:02:03;;;;;;;14.57;10.80;;;12.80;99.90;;;;;;5144206;27;21197;-65
2022/10/07 12:04:39;;;;;;;12.43;9.30;;;12.60;99.90;;;;;;5143351;27;20441;-65
2022/10/07 12:07:35;;;;;;;13.63;10.67;;;12.70;99.90;;;;;;5143032;27;20468;-65
2022/10/07 12:10:25;;;;;;;14.30;11.30;;;12.70;99.90;;;;;;5138101;27;20556;-65
2022/10/07 12:12:59;;;;;;;14.13;10.67;;;12.60;99.90;;;;;;5142476;27;20464;-65
2022/10/07 12:15:37;;;;;;;14.80;11.80;;;12.60;99.90;;;;;;5143612;27;20473;-65
2022/10/07 12:18:30;;;;;;;15.30;10.83;;;12.60;99.90;;;;;;5143017;27;20485;-65
2022/10/07 12:21:05;;;;;;;12.67;10.03;;;12.60;99.90;;;;;;5143334;27;20482;-66
2022/10/07 12:23:46;;;;;;;15.77;9.77;;;12.60;99.90;;;;;;5124931;27;20451;-65
2022/10/07 12:26:52;;;;;;;15.87;10.53;;;12.60;99.90;;;;;;5136722;27;20449;-65
2022/10/07 12:29:34;;;;;;;12.90;9.90;;;12.50;99.90;;;;;;5138378;27;20491;-65
2022/10/07 12:32:25;;;;;;;13.60;8.30;;;12.50;99.90;;;;;;5142825;27;20445;-65
2022/10/07 12:34:56;;;;;;;17.40;11.00;;;12.40;99.90;;;;;;5130871;27;20478;-65
2022/10/07 12:38:04;;;;;;;12.57;9.43;;;12.40;99.90;;;;;;5142955;27;20459;-65
2022/10/07 12:40:38;;;;;;;13.97;10.00;;;12.40;99.90;;;;;;5058776;28;20504;-65
2022/10/07 12:43:27;;;;;;;15.83;10.73;;;12.40;99.90;;;;;;5058062;28;20479;-65
2022/10/07 12:45:59;;;;;;;17.70;11.77;;;12.40;99.90;;;;;;5044407;28;20509;-65
2022/10/07 12:48:35;;;;;;;14.60;11.13;;;12.50;99.90;;;;;;5058640;28;20522;-64
2022/10/07 12:51:12;;;;;;;14.57;10.57;;;12.40;99.90;;;;;;5059390;28;20455;-66
2022/10/07 12:53:46;;;;;;;14.07;9.77;;;12.30;99.90;;;;;;5059037;28;20452;-65
2022/10/07 12:56:22;;;;;;;11.30;8.67;;;12.20;99.90;;;;;;5058523;28;20452;-66
2022/10/07 13:02:27;;;;;;;13.87;9.90;;;12.30;99.90;;;;;;5051843;28;20495;-65
2022/10/07 13:05:33;;;;;;;15.13;10.47;;;12.30;99.90;;;;;;5044322;28;20444;-65
2022/10/07 13:08:47;;;;;;;15.37;10.63;;;12.30;99.90;;;;;;5026814;28;20444;-65
2022/10/07 13:11:50;;;;;;;13.07;8.40;;;12.20;99.90;;;;;;5048712;28;20802;-65
2022/10/07 13:14:28;;;;;;;11.33;9.37;;;12.20;99.90;;;;;;5033365;28;20456;-65
2022/10/07 13:17:09;;;;;;;12.80;9.67;;;12.10;99.90;;;;;;5126871;28;20452;-65